Terminal Aerodrome Forecast
Issued by NWS

Home | Current Version | Previous Version | Text Only | Print | Product List | Glossary On
Versions: 1 2 3 4 5 6 7 8 9 10 11 12 13 14 15 16 17 18 19 20 21 22
000
FTPA31 PHFO 171700
TAFJHM
TAF
PHJH 171734Z 1718/1818 06009KT P6SM FEW025
     FM172000 04012G20KT P6SM FEW025 SCT045
     FM180500 04008KT P6SM SCT025 BKN045
      AMD NOT SKED AFT 180400=

USA.gov is the U.S. government's official web portal to all federal, state and local government web resources and services.